createdAt,value
2017-12-06T00:00:51.632Z,72.80
2017-12-06T00:03:32.177Z,72.40
2017-12-06T00:06:15.326Z,72.40
2017-12-06T00:08:49.905Z,72.60
2017-12-06T00:11:23.837Z,72.60
2017-12-06T00:14:06.392Z,72.60
2017-12-06T00:16:43.782Z,72.60
2017-12-06T00:19:18.306Z,72.40
2017-12-06T00:21:51.951Z,72.30
2017-12-06T00:24:30.324Z,72.50
2017-12-06T00:27:09.201Z,72.40
2017-12-06T00:29:48.332Z,72.70
2017-12-06T00:32:26.835Z,72.60
2017-12-06T00:35:04.808Z,72.70
2017-12-06T00:37:42.568Z,72.80
2017-12-06T00:40:24.932Z,73.00
2017-12-06T00:43:04.728Z,73.00
2017-12-06T00:45:46.125Z,73.00
2017-12-06T00:48:25.982Z,73.00
2017-12-06T00:51:06.035Z,72.90
2017-12-06T00:53:40.042Z,73.00
2017-12-06T00:56:19.218Z,72.80
2017-12-06T00:58:58.626Z,72.90
2017-12-06T01:01:37.603Z,72.70
2017-12-06T01:04:16.108Z,72.80
2017-12-06T01:06:55.494Z,73.00
2017-12-06T01:09:34.013Z,72.90
2017-12-06T01:12:16.796Z,73.20
2017-12-06T01:14:56.705Z,73.30
2017-12-06T01:17:35.844Z,73.30
2017-12-06T01:20:15.736Z,73.70
2017-12-06T01:22:54.786Z,73.90
2017-12-06T01:25:35.040Z,74.10
2017-12-06T01:28:14.863Z,74.20
2017-12-06T01:30:55.954Z,73.80
2017-12-06T01:33:37.641Z,74.10
2017-12-06T01:36:16.720Z,74.20
2017-12-06T01:38:54.425Z,74.20
2017-12-06T01:41:35.861Z,74.30
2017-12-06T01:44:11.184Z,74.20
2017-12-06T01:46:51.555Z,74.40
2017-12-06T01:49:30.000Z,74.50
2017-12-06T01:52:10.078Z,74.50
2017-12-06T01:54:48.916Z,74.40
2017-12-06T01:57:28.248Z,74.40
2017-12-06T02:00:08.033Z,74.10
2017-12-06T02:02:46.754Z,74.00
2017-12-06T02:05:25.796Z,73.90
2017-12-06T02:08:04.073Z,74.10
2017-12-06T02:10:43.391Z,74.10
2017-12-06T02:13:22.332Z,73.50
2017-12-06T02:16:02.356Z,73.40
2017-12-06T02:18:42.948Z,73.20
2017-12-06T02:21:25.129Z,73.20
2017-12-06T02:24:04.547Z,73.10
2017-12-06T02:26:44.552Z,73.20
2017-12-06T02:29:23.560Z,73.40
2017-12-06T02:32:04.459Z,72.80
2017-12-06T02:34:46.304Z,72.80
2017-12-06T02:37:27.248Z,72.80
2017-12-06T02:40:14.794Z,72.80
2017-12-06T02:42:58.950Z,72.80
2017-12-06T02:45:39.298Z,72.70
2017-12-06T02:48:19.903Z,72.60
2017-12-06T02:50:54.573Z,72.90
2017-12-06T02:53:35.098Z,72.80
2017-12-06T02:56:14.075Z,72.80
2017-12-06T02:58:55.342Z,73.00
2017-12-06T03:01:34.146Z,73.30
2017-12-06T03:04:13.272Z,73.50
2017-12-06T03:06:52.111Z,73.60
2017-12-06T03:09:29.872Z,73.30
2017-12-06T03:12:07.688Z,74.20
2017-12-06T03:14:47.616Z,73.60
2017-12-06T03:17:27.151Z,73.20
2017-12-06T03:20:05.691Z,73.10
2017-12-06T03:22:43.657Z,73.00
2017-12-06T03:25:22.526Z,73.00
2017-12-06T03:28:01.365Z,73.10
2017-12-06T03:30:40.980Z,72.80
2017-12-06T03:33:13.785Z,73.10
2017-12-06T03:35:48.603Z,72.90
2017-12-06T03:38:29.046Z,73.00
2017-12-06T03:41:09.351Z,73.10
2017-12-06T03:43:50.520Z,73.20
2017-12-06T03:46:29.841Z,72.90
2017-12-06T03:49:08.497Z,73.10
2017-12-06T03:51:47.386Z,72.90
2017-12-06T03:54:27.018Z,72.90
2017-12-06T03:57:00.250Z,73.00
2017-12-06T03:59:39.026Z,72.70
2017-12-06T04:02:12.432Z,72.80
2017-12-06T04:04:51.589Z,72.70
2017-12-06T04:07:31.746Z,72.90
2017-12-06T04:10:09.244Z,73.00
2017-12-06T04:12:49.338Z,73.10
2017-12-06T04:15:22.585Z,72.90
2017-12-06T04:18:02.446Z,72.80
2017-12-06T04:20:43.070Z,72.90
2017-12-06T04:23:26.068Z,72.90
2017-12-06T04:26:04.743Z,72.70
2017-12-06T04:28:42.951Z,73.00
2017-12-06T04:31:16.510Z,72.90
2017-12-06T04:33:53.597Z,73.10
2017-12-06T04:36:33.180Z,73.30
2017-12-06T04:39:11.993Z,73.10
2017-12-06T04:41:47.542Z,73.00
2017-12-06T04:44:22.649Z,73.20
2017-12-06T04:47:01.920Z,73.40
2017-12-06T04:49:42.931Z,73.50
2017-12-06T04:52:21.394Z,73.90
2017-12-06T04:54:59.035Z,73.70
2017-12-06T04:57:39.925Z,73.80
2017-12-06T05:00:19.686Z,73.80
2017-12-06T05:02:57.196Z,73.60
2017-12-06T05:05:34.883Z,73.90
2017-12-06T05:08:14.922Z,73.70
2017-12-06T05:10:53.100Z,73.70
2017-12-06T05:13:32.288Z,73.50
2017-12-06T05:16:10.870Z,74.20
2017-12-06T05:18:52.128Z,73.40
2017-12-06T05:21:33.119Z,73.50
2017-12-06T05:24:12.755Z,73.40
2017-12-06T05:26:52.303Z,73.60
2017-12-06T05:29:31.424Z,73.80
2017-12-06T05:32:09.680Z,73.90
2017-12-06T05:34:52.336Z,74.20
2017-12-06T05:37:28.456Z,74.40
2017-12-06T05:40:01.987Z,74.30
2017-12-06T05:42:44.138Z,74.50
2017-12-06T05:45:19.392Z,74.40
2017-12-06T05:47:57.435Z,74.50
2017-12-06T05:50:31.686Z,74.70
2017-12-06T05:53:07.063Z,74.70
2017-12-06T05:55:40.899Z,74.70
2017-12-06T05:58:15.120Z,75.10
2017-12-06T06:00:54.410Z,75.10
2017-12-06T06:03:33.181Z,74.80
2017-12-06T06:06:12.838Z,74.80
2017-12-06T06:08:52.518Z,74.80
2017-12-06T06:11:27.600Z,74.70
2017-12-06T06:14:07.388Z,74.70
2017-12-06T06:16:46.689Z,74.70
2017-12-06T06:19:20.539Z,74.70
2017-12-06T06:21:55.344Z,74.40
2017-12-06T06:24:30.052Z,74.40
2017-12-06T06:27:09.091Z,74.30
2017-12-06T06:29:48.811Z,73.70
2017-12-06T06:32:28.002Z,73.30
2017-12-06T06:35:06.816Z,73.20
2017-12-06T06:37:45.191Z,72.90
2017-12-06T06:40:23.464Z,72.80
2017-12-06T06:43:03.817Z,73.00
2017-12-06T06:45:37.367Z,72.80
2017-12-06T06:48:12.505Z,73.00
2017-12-06T06:50:45.610Z,72.90
2017-12-06T06:53:24.639Z,72.80
2017-12-06T06:56:04.870Z,72.80
2017-12-06T06:58:39.954Z,72.80
2017-12-06T07:01:19.595Z,73.00
2017-12-06T07:03:59.364Z,72.70
2017-12-06T07:06:39.595Z,72.50
2017-12-06T07:09:19.248Z,73.10
2017-12-06T07:11:56.620Z,72.50
2017-12-06T07:14:34.077Z,72.50
2017-12-06T07:17:15.827Z,72.50
2017-12-06T07:19:52.517Z,72.50
2017-12-06T07:22:27.597Z,72.60
2017-12-06T07:25:05.438Z,72.50
2017-12-06T07:27:44.320Z,72.40
2017-12-06T07:30:23.230Z,72.60
2017-12-06T07:33:02.320Z,72.60
2017-12-06T07:35:45.260Z,72.50
2017-12-06T07:38:21.134Z,72.50
2017-12-06T07:41:00.852Z,72.50
2017-12-06T07:43:42.694Z,72.50
2017-12-06T07:46:21.310Z,73.20
2017-12-06T07:48:59.280Z,72.50
2017-12-06T07:51:40.992Z,72.50
2017-12-06T07:54:19.902Z,72.30
2017-12-06T07:56:58.849Z,72.30
2017-12-06T07:59:38.363Z,72.30
2017-12-06T08:02:12.824Z,72.50
2017-12-06T08:05:02.611Z,72.30
2017-12-06T08:07:43.011Z,72.30
2017-12-06T08:10:17.776Z,71.90
2017-12-06T08:12:58.795Z,71.90
2017-12-06T08:15:38.530Z,71.60
2017-12-06T08:18:11.102Z,71.60
2017-12-06T08:20:54.302Z,72.00
2017-12-06T08:23:29.838Z,71.60
2017-12-06T08:26:04.630Z,71.80
2017-12-06T08:28:38.730Z,71.70
2017-12-06T08:31:18.186Z,71.50
2017-12-06T08:33:58.079Z,71.50
2017-12-06T08:36:37.703Z,71.60
2017-12-06T08:39:16.950Z,71.50
2017-12-06T08:42:00.630Z,71.50
2017-12-06T08:44:40.383Z,71.40
2017-12-06T08:47:23.266Z,71.30
2017-12-06T08:50:06.239Z,71.40
2017-12-06T08:52:47.961Z,71.20
2017-12-06T08:55:21.966Z,71.40
2017-12-06T08:57:56.361Z,71.30
2017-12-06T09:00:29.990Z,71.30
2017-12-06T09:03:07.198Z,71.10
2017-12-06T09:05:40.782Z,71.10
2017-12-06T09:08:19.564Z,71.40
2017-12-06T09:10:59.083Z,71.10
2017-12-06T09:13:40.088Z,71.10
2017-12-06T09:16:18.821Z,71.10
2017-12-06T09:18:53.913Z,71.20
2017-12-06T09:21:37.764Z,71.30
2017-12-06T09:24:17.613Z,71.30
2017-12-06T09:26:56.470Z,71.20
2017-12-06T09:29:36.283Z,71.00
2017-12-06T09:32:10.898Z,71.10
2017-12-06T09:34:53.609Z,71.00
2017-12-06T09:37:35.987Z,70.90
2017-12-06T09:40:09.610Z,71.40
2017-12-06T09:42:48.668Z,71.30
2017-12-06T09:45:29.869Z,72.30
2017-12-06T09:48:09.699Z,71.00
2017-12-06T09:50:52.398Z,71.30
2017-12-06T09:53:33.231Z,71.10
2017-12-06T09:56:10.754Z,71.10
2017-12-06T09:58:51.874Z,70.40
2017-12-06T10:01:31.552Z,70.30
2017-12-06T10:04:06.134Z,69.90
2017-12-06T10:06:49.708Z,70.20
2017-12-06T10:09:28.420Z,68.60
2017-12-06T10:12:02.517Z,69.20
2017-12-06T10:14:43.651Z,69.60
2017-12-06T10:17:27.406Z,70.00
2017-12-06T10:20:06.910Z,70.00
2017-12-06T10:22:48.796Z,70.40
2017-12-06T10:25:25.829Z,70.30
2017-12-06T10:28:03.879Z,70.20
2017-12-06T10:30:37.738Z,70.30
2017-12-06T10:33:11.889Z,70.20
2017-12-06T10:35:53.199Z,69.80
2017-12-06T10:38:36.242Z,69.80
2017-12-06T10:41:09.446Z,69.80
2017-12-06T10:43:49.584Z,69.50
2017-12-06T10:46:29.824Z,69.60
2017-12-06T10:49:08.674Z,69.80
2017-12-06T10:51:47.692Z,70.10
2017-12-06T10:54:29.619Z,70.00
2017-12-06T10:57:07.942Z,70.00
2017-12-06T10:59:50.369Z,69.50
2017-12-06T11:02:29.389Z,69.20
2017-12-06T11:05:10.442Z,69.40
2017-12-06T11:07:51.108Z,69.10
2017-12-06T11:10:29.618Z,69.00
2017-12-06T11:13:07.849Z,69.20
2017-12-06T11:15:42.649Z,69.00
2017-12-06T11:18:22.066Z,69.10
2017-12-06T11:21:04.343Z,69.40
2017-12-06T11:23:37.415Z,69.40
2017-12-06T11:26:16.970Z,69.10
2017-12-06T11:28:58.268Z,68.90
2017-12-06T11:31:38.227Z,69.00
2017-12-06T11:34:20.022Z,69.00
2017-12-06T11:37:03.761Z,69.00
2017-12-06T11:39:43.280Z,67.90
2017-12-06T11:42:20.096Z,68.30
2017-12-06T11:44:54.562Z,68.30
2017-12-06T11:47:35.609Z,68.60
2017-12-06T11:50:15.088Z,68.50
2017-12-06T11:52:50.953Z,68.30
2017-12-06T11:55:34.266Z,69.00
2017-12-06T11:58:21.150Z,68.70
2017-12-06T12:00:56.388Z,68.70
2017-12-06T12:03:31.140Z,68.60
2017-12-06T12:06:11.517Z,69.20
2017-12-06T12:08:54.155Z,68.70
2017-12-06T12:11:32.187Z,68.60
2017-12-06T12:14:18.707Z,69.20
2017-12-06T12:16:52.647Z,69.60
2017-12-06T12:19:32.424Z,70.10
2017-12-06T12:22:14.505Z,70.00
2017-12-06T12:24:58.135Z,70.00
2017-12-06T12:27:40.644Z,70.30
2017-12-06T12:30:22.452Z,70.30
2017-12-06T12:33:04.454Z,71.10
2017-12-06T12:35:47.182Z,70.10
2017-12-06T12:38:22.765Z,70.10
2017-12-06T12:41:04.764Z,70.00
2017-12-06T12:43:45.562Z,70.20
2017-12-06T12:46:32.659Z,70.40
2017-12-06T12:49:19.507Z,70.30
2017-12-06T12:51:54.002Z,70.10
2017-12-06T12:54:34.068Z,70.40
2017-12-06T12:57:13.868Z,70.30
2017-12-06T12:59:47.398Z,70.20
2017-12-06T13:02:26.630Z,69.80
2017-12-06T13:05:13.165Z,70.00
2017-12-06T13:07:55.993Z,70.00
2017-12-06T13:10:36.509Z,70.30
2017-12-06T13:13:15.805Z,70.50
2017-12-06T13:15:55.429Z,70.70
2017-12-06T13:18:39.146Z,70.50
2017-12-06T13:21:18.387Z,70.80
2017-12-06T13:23:52.218Z,70.80
2017-12-06T13:26:31.358Z,70.90
2017-12-06T13:29:10.150Z,71.30
2017-12-06T13:31:49.923Z,71.40
2017-12-06T13:34:29.597Z,71.50
2017-12-06T13:37:12.317Z,71.70
2017-12-06T13:39:57.850Z,71.90
2017-12-06T13:42:38.132Z,71.90
2017-12-06T13:45:18.982Z,71.80
2017-12-06T13:47:59.460Z,72.00
2017-12-06T13:50:38.254Z,72.30
2017-12-06T13:53:18.774Z,72.40
2017-12-06T13:55:52.853Z,72.10
2017-12-06T13:58:30.164Z,72.60
2017-12-06T14:01:11.474Z,72.70
2017-12-06T14:03:45.333Z,73.00
2017-12-06T14:06:20.853Z,73.00
2017-12-06T14:08:55.162Z,73.10
2017-12-06T14:11:38.090Z,73.00
2017-12-06T14:14:12.626Z,73.40
2017-12-06T14:17:02.934Z,73.20
2017-12-06T14:19:42.096Z,73.60
2017-12-06T14:22:28.014Z,73.60
2017-12-06T14:25:12.477Z,73.60
2017-12-06T14:27:53.148Z,73.80
2017-12-06T14:30:34.060Z,73.90
2017-12-06T14:33:11.198Z,74.00
2017-12-06T14:35:51.591Z,74.00
2017-12-06T14:38:27.311Z,73.90
2017-12-06T14:41:08.841Z,74.10
2017-12-06T14:43:52.021Z,74.30
2017-12-06T14:46:26.877Z,74.40
2017-12-06T14:49:07.127Z,74.40
2017-12-06T14:51:46.743Z,74.60
2017-12-06T14:54:27.131Z,74.60
2017-12-06T14:57:07.552Z,74.80
2017-12-06T14:59:47.703Z,75.10
2017-12-06T15:02:32.848Z,75.10
2017-12-06T15:05:12.218Z,75.10
2017-12-06T15:08:05.221Z,75.20
2017-12-06T15:10:46.897Z,75.10
2017-12-06T15:13:33.042Z,75.50
2017-12-06T15:16:14.697Z,75.40
2017-12-06T15:18:55.543Z,75.40
2017-12-06T15:21:34.552Z,75.20
2017-12-06T15:24:18.918Z,74.90
2017-12-06T15:27:01.586Z,75.00
2017-12-06T15:29:37.747Z,75.20
2017-12-06T15:32:20.359Z,75.10
2017-12-06T15:34:59.423Z,75.10
2017-12-06T15:37:42.814Z,75.10
2017-12-06T15:40:28.125Z,74.90
2017-12-06T15:43:13.527Z,75.10
2017-12-06T15:45:52.891Z,75.20
2017-12-06T15:48:27.870Z,75.10
2017-12-06T15:51:14.289Z,75.30
2017-12-06T15:53:47.433Z,75.30
2017-12-06T15:56:30.704Z,75.20
2017-12-06T15:59:09.813Z,75.20
2017-12-06T16:01:53.237Z,75.40
2017-12-06T16:04:32.774Z,75.30
2017-12-06T16:07:20.497Z,75.50
2017-12-06T16:10:01.650Z,75.50
2017-12-06T16:12:45.266Z,75.50
2017-12-06T16:15:29.504Z,75.70
2017-12-06T16:18:10.546Z,75.70
2017-12-06T16:20:49.410Z,75.90
2017-12-06T16:23:28.290Z,75.90
2017-12-06T16:26:08.855Z,75.70
2017-12-06T16:28:48.376Z,75.80
2017-12-06T16:31:23.515Z,75.80
2017-12-06T16:34:03.105Z,76.10
2017-12-06T16:39:31.999Z,76.00
2017-12-06T16:45:14.702Z,75.80
2017-12-06T16:47:57.613Z,76.20
2017-12-06T16:50:40.456Z,75.90
2017-12-06T16:53:34.138Z,76.00
2017-12-06T16:56:16.036Z,76.00
2017-12-06T16:59:04.618Z,75.90
2017-12-06T17:04:33.118Z,76.00
2017-12-06T17:07:10.826Z,76.00
2017-12-06T17:09:52.346Z,76.10
2017-12-06T17:12:36.092Z,76.10
2017-12-06T17:15:18.886Z,76.20
2017-12-06T17:18:03.949Z,75.80
2017-12-06T17:20:45.446Z,75.80
2017-12-06T17:29:08.990Z,75.80
2017-12-06T17:31:56.735Z,75.80
2017-12-06T17:34:39.950Z,76.50
2017-12-06T17:37:22.377Z,75.90
2017-12-06T17:40:05.827Z,75.70
2017-12-06T17:42:46.215Z,75.70
2017-12-06T17:45:27.500Z,75.80
2017-12-06T17:48:12.024Z,75.40
2017-12-06T17:53:38.727Z,75.60
2017-12-06T17:56:20.763Z,75.60
2017-12-06T17:59:03.648Z,75.60
2017-12-06T18:05:00.332Z,75.90
2017-12-06T18:07:44.429Z,75.50
2017-12-06T18:10:33.961Z,75.50
2017-12-06T18:18:00.032Z,75.40
2017-12-06T18:20:42.169Z,75.20
2017-12-06T18:23:28.723Z,75.10
2017-12-06T18:26:08.851Z,75.00
2017-12-06T18:28:47.567Z,75.00
2017-12-06T18:31:21.954Z,75.20
2017-12-06T18:34:02.750Z,75.20
2017-12-06T18:39:28.812Z,75.20
2017-12-06T18:42:12.499Z,74.80
2017-12-06T18:44:52.757Z,74.80
2017-12-06T18:47:38.395Z,74.70
2017-12-06T18:50:38.330Z,74.70
2017-12-06T18:53:13.199Z,74.70
2017-12-06T18:55:56.804Z,74.70
2017-12-06T18:58:42.318Z,74.60
2017-12-06T19:01:28.533Z,74.20
2017-12-06T19:04:09.587Z,74.30
2017-12-06T19:09:36.644Z,74.10
2017-12-06T19:12:20.864Z,74.40
2017-12-06T19:17:48.658Z,73.60
2017-12-06T19:20:27.343Z,73.60
2017-12-06T19:23:10.418Z,73.30
2017-12-06T19:25:52.822Z,73.30
2017-12-06T19:28:34.209Z,73.20
